Flight Track Log - Related Links

Times and Time Zones

All times are in EDT time to prevent confusion due to time zone crossing. See the ABX187 flight status page for this flight to view local times or setup timezone preferences in your user account.

Time Position Orientation Groundspeed Altitude Reporting Facility
EDT Latitude Longitude Course Direction KTS MPH feet Rate Location/Type
Sat 12:09:36 AM 39.8667 -75.2667 270° West 167 192 1,000  Level Philadelphia TRACON
Sat 12:10:06 AM 39.8667 -75.3000 270° West 173 199 2,600 3,200 Climbing Philadelphia TRACON
Sat 12:11:06 AM 39.8667 -75.3833 270° West 259 298 5,800 3,750 Climbing Philadelphia TRACON
Sat 12:12:06 AM 39.9000 -75.4667 298° West 267 307 10,100 2,794 Climbing Philadelphia TRACON
Sat 12:13:17 AM 39.9297 -75.5867 288° West 287 330 11,900 1,545 Climbing New York Center
Sat 12:14:18 AM 39.9208 -75.7025 264° West 306 352 13,500 2,430 Climbing New York Center
Sat 12:15:18 AM 39.9175 -75.8267 268° West 328 377 16,800 3,277 Climbing New York Center
Sat 12:16:17 AM 39.9161 -75.9539 269° West 350 403 20,000 2,975 Climbing New York Center
Sat 12:17:17 AM 39.9122 -76.0889 268° West 365 420 22,700 2,281 Climbing New York Center
Sat 12:18:18 AM 39.9094 -76.1997 268° West 376 433 24,600 2,262 Climbing New York Center
Sat 12:19:19 AM 39.9061 -76.3592 268° West 390 449 27,300 2,496 Climbing New York Center
Sat 12:20:11 AM 39.8708 -76.4756 248° West 396 456 29,300 2,182 Climbing Washington Center
Sat 12:21:09 AM 39.8156 -76.6261 244° Southwest 398 458 31,300 1,361 Climbing Washington Center
Sat 12:22:10 AM 39.7683 -76.7631 246° West 416 479 32,000 344 Climbing Washington Center
Sat 12:23:11 AM 39.7253 -76.9000 248° West 416 479 32,000  Level Washington Center
Sat 12:24:12 AM 39.7008 -77.0478 258° West 416 479 32,000  Level Washington Center
Sat 12:25:10 AM 39.6822 -77.1958 261° West 416 479 32,000  Level Washington Center
Sat 12:26:10 AM 39.6656 -77.3411 262° West 416 479 32,000  Level Washington Center
Sat 12:27:09 AM 39.6467 -77.4889 261° West 416 479 32,000  Level Washington Center
Sat 12:28:11 AM 39.6278 -77.6336 260° West 416 479 32,000  Level Washington Center
Sat 12:29:10 AM 39.6083 -77.7786 260° West 416 479 32,000  Level Washington Center
Sat 12:30:11 AM 39.5889 -77.9289 261° West 416 479 32,000  Level Washington Center
Sat 12:31:09 AM 39.5694 -78.0708 260° West 416 479 32,000  Level Washington Center
Sat 12:32:10 AM 39.5497 -78.2183 260° West 416 479 32,000  Level Washington Center
Sat 12:33:11 AM 39.5297 -78.3628 260° West 411 473 32,000  Level Washington Center
Sat 12:34:12 AM 39.5119 -78.4967 260° West 411 473 32,000  Level Washington Center
Sat 12:35:10 AM 39.4917 -78.6439 260° West 411 473 32,000  Level Washington Center
Sat 12:36:44 AM 39.4639 -78.8983 262° West 421 484 32,000  Level Indianapolis Center
Sat 12:37:45 AM 39.4575 -79.0450 267° West 420 483 32,000  Level Indianapolis Center
Sat 12:38:46 AM 39.4481 -79.1886 265° West 418 481 32,000  Level Indianapolis Center
Sat 12:39:46 AM 39.4408 -79.3353 266° West 421 484 32,000  Level Indianapolis Center
Sat 12:40:47 AM 39.4319 -79.4828 266° West 417 480 32,000  Level Indianapolis Center
Sat 12:41:48 AM 39.4228 -79.6317 265° West 417 480 32,000  Level Indianapolis Center
Sat 12:42:48 AM 39.4139 -79.7792 266° West 414 476 32,000  Level Indianapolis Center
Sat 12:43:49 AM 39.4061 -79.9253 266° West 409 471 32,000  Level Indianapolis Center
Sat 12:44:50 AM 39.3961 -80.0731 265° West 412 474 32,000  Level Indianapolis Center
Sat 12:45:50 AM 39.3872 -80.2197 266° West 412 474 32,000  Level Indianapolis Center
Sat 12:46:51 AM 39.3775 -80.3644 265° West 406 467 32,000  Level Indianapolis Center
Sat 12:47:51 AM 39.3664 -80.5378 265° West 404 465 32,000  Level Indianapolis Center
Sat 12:48:52 AM 39.3569 -80.6844 265° West 409 471 32,000  Level Indianapolis Center
Sat 12:49:53 AM 39.3467 -80.8294 265° West 408 470 32,000  Level Indianapolis Center
Sat 12:50:53 AM 39.3375 -80.9761 265° West 410 472 32,000  Level Indianapolis Center
Sat 12:51:54 AM 39.3267 -81.1219 265° West 411 473 32,000  Level Indianapolis Center
Sat 12:52:54 AM 39.3169 -81.2675 265° West 410 472 32,000  Level Indianapolis Center
Sat 12:53:55 AM 39.3061 -81.4147 265° West 413 475 32,000  Level Indianapolis Center
Sat 12:54:56 AM 39.2956 -81.5631 265° West 416 479 32,000  Level Indianapolis Center
Sat 12:55:56 AM 39.2847 -81.7086 265° West 412 474 32,000  Level Indianapolis Center
Sat 12:56:57 AM 39.2731 -81.8542 264° West 411 473 32,000  Level Indianapolis Center
Sat 12:57:57 AM 39.2608 -82.0014 264° West 414 476 32,000  Level Indianapolis Center
Sat 12:58:58 AM 39.2494 -82.1469 264° West 410 472 32,000  Level Indianapolis Center
Sat 12:59:58 AM 39.2375 -82.2925 264° West 411 473 32,000  Level Indianapolis Center
Sat 01:00:59 AM 39.2256 -82.4369 264° West 409 471 32,000  Level Indianapolis Center
Sat 01:01:59 AM 39.2131 -82.5922 264° West 411 473 32,000  Level Indianapolis Center
Sat 01:03:00 AM 39.2011 -82.7414 264° West 414 476 32,000  Level Indianapolis Center
Sat 01:04:00 AM 39.1869 -82.8917 263° West 417 480 32,000 -347 Level Indianapolis Center
Sat 01:05:01 AM 39.1764 -83.0250 264° West 412 474 31,300 -1,983 Descending Indianapolis Center
Sat 01:06:01 AM 39.1617 -83.1839 263° West 403 464 28,000 -3,124 Descending Indianapolis Center
Sat 01:07:02 AM 39.1486 -83.3244 263° West 393 452 25,000 -2,975 Descending Indianapolis Center
Sat 01:08:02 AM 39.1361 -83.4658 264° West 394 453 22,000 -2,975 Descending Indianapolis Center
Sat 01:09:03 AM 39.1239 -83.6028 263° West 384 442 19,000 -2,926 Descending Indianapolis Center
Sat 01:10:03 AM 39.1106 -83.7383 263° West 379 436 16,100 -2,777 Descending Indianapolis Center
Sat 01:11:04 AM 39.0994 -83.8664 264° West 361 415 13,400 -2,579 Descending Indianapolis Center
Sat 01:12:04 AM 39.0869 -83.9856 262° West 337 388 10,900 -1,636 Descending Indianapolis Center
Sat 01:13:05 AM 39.0764 -84.0961 263° West 308 354 10,100 -1,180 Descending Indianapolis Center
Sat 01:14:06 AM 39.0669 -84.1858 262° West 256 295 8,500 -2,150 Descending Indianapolis Center
Sat 01:15:05 AM 39.0572 -84.2708 262° West 240 276 5,800 -1,750 Descending Indianapolis Center
Sat 01:16:06 AM 39.0492 -84.3564 263° West 239 275 5,000 -673 Descending Indianapolis Center
Sat 01:16:43 AM 39.0500 -84.4000 271° West 235 270 4,700 -928 Descending Cincinnati TRACON
Sat 01:17:43 AM 39.0500 -84.4833 270° West 217 250 3,500 -1,050 Descending Cincinnati TRACON
Sat 01:18:43 AM 39.0500 -84.5500 270° West 161 185 2,600 -882 Descending Cincinnati TRACON
Sat 01:19:25 AM 39.0500 -84.5833 270° West 135 155 2,000 -700 Descending Cincinnati TRACON
Sat 01:20:43 AM 39.0500 -84.6333 270° West 108 124 1,200 -615 Descending Cincinnati TRACON
Sat 01:22:00 AM 39.0333 -84.6667 180° South  Level FlightAware Approximate
Sat 01:29:00 AM 39.0488 -84.6678 180° South  Level Estimated

Login

Don't have an account? Register now (free) for customized features, flight alerts, and more!